sensor_id;sensor_type;location;lat;lon;timestamp;pressure;altitude;pressure_sealevel;temperature;humidity
46756;BME280;32506;52.826;-1.192;2022-07-29T00:00:10;101226.72;;;18.68;41.33
46756;BME280;32506;52.826;-1.192;2022-07-29T00:02:36;101230.75;;;18.65;41.60
46756;BME280;32506;52.826;-1.192;2022-07-29T00:05:02;101222.88;;;18.64;41.53
46756;BME280;32506;52.826;-1.192;2022-07-29T00:07:28;101227.75;;;18.61;41.83
46756;BME280;32506;52.826;-1.192;2022-07-29T00:09:54;101229.06;;;18.59;41.81
46756;BME280;32506;52.826;-1.192;2022-07-29T00:12:21;101228.22;;;18.58;41.84
46756;BME280;32506;52.826;-1.192;2022-07-29T00:14:47;101225.22;;;18.55;41.75
46756;BME280;32506;52.826;-1.192;2022-07-29T00:17:12;101221.69;;;18.54;41.90
46756;BME280;32506;52.826;-1.192;2022-07-29T00:19:38;101225.69;;;18.52;42.01
46756;BME280;32506;52.826;-1.192;2022-07-29T00:22:03;101220.53;;;18.50;41.98
46756;BME280;32506;52.826;-1.192;2022-07-29T00:24:28;101222.69;;;18.48;41.70
46756;BME280;32506;52.826;-1.192;2022-07-29T00:26:54;101222.13;;;18.46;41.98
46756;BME280;32506;52.826;-1.192;2022-07-29T00:29:19;101226.13;;;18.43;42.29
46756;BME280;32506;52.826;-1.192;2022-07-29T00:31:45;101222.03;;;18.41;42.45
46756;BME280;32506;52.826;-1.192;2022-07-29T00:34:10;101233.94;;;18.40;42.10
46756;BME280;32506;52.826;-1.192;2022-07-29T00:36:56;101232.56;;;18.37;42.20
46756;BME280;32506;52.826;-1.192;2022-07-29T00:39:22;101234.69;;;18.35;42.12
46756;BME280;32506;52.826;-1.192;2022-07-29T00:41:48;101228.72;;;18.33;42.36
46756;BME280;32506;52.826;-1.192;2022-07-29T00:44:14;101226.00;;;18.33;42.36
46756;BME280;32506;52.826;-1.192;2022-07-29T00:46:39;101227.31;;;18.31;42.14
46756;BME280;32506;52.826;-1.192;2022-07-29T00:49:05;101225.09;;;18.27;42.13
46756;BME280;32506;52.826;-1.192;2022-07-29T00:51:32;101233.47;;;18.26;42.44
46756;BME280;32506;52.826;-1.192;2022-07-29T00:53:59;101233.97;;;18.23;42.47
46756;BME280;32506;52.826;-1.192;2022-07-29T00:56:24;101235.63;;;18.24;42.35
46756;BME280;32506;52.826;-1.192;2022-07-29T00:58:50;101234.47;;;18.20;42.81
46756;BME280;32506;52.826;-1.192;2022-07-29T01:01:16;101234.72;;;18.18;42.60
46756;BME280;32506;52.826;-1.192;2022-07-29T01:03:41;101233.34;;;18.16;42.81
46756;BME280;32506;52.826;-1.192;2022-07-29T01:06:07;101236.25;;;18.14;42.93
46756;BME280;32506;52.826;-1.192;2022-07-29T01:08:32;101236.50;;;18.13;42.87
46756;BME280;32506;52.826;-1.192;2022-07-29T01:11:00;101233.25;;;18.10;42.83
46756;BME280;32506;52.826;-1.192;2022-07-29T01:13:27;101242.44;;;18.09;43.04
46756;BME280;32506;52.826;-1.192;2022-07-29T01:15:56;101238.34;;;18.07;43.11
46756;BME280;32506;52.826;-1.192;2022-07-29T01:18:30;101235.88;;;18.05;43.14
46756;BME280;32506;52.826;-1.192;2022-07-29T01:26:59;101235.00;;;18.00;43.13
46756;BME280;32506;52.826;-1.192;2022-07-29T01:29:36;101229.25;;;17.96;42.96
46756;BME280;32506;52.826;-1.192;2022-07-29T01:32:08;101232.19;;;17.94;42.95
46756;BME280;32506;52.826;-1.192;2022-07-29T01:34:54;101227.84;;;17.93;43.01
46756;BME280;32506;52.826;-1.192;2022-07-29T01:37:28;101231.84;;;17.91;43.23
46756;BME280;32506;52.826;-1.192;2022-07-29T01:39:57;101232.09;;;17.89;43.37
46756;BME280;32506;52.826;-1.192;2022-07-29T01:42:42;101228.78;;;17.87;43.16
46756;BME280;32506;52.826;-1.192;2022-07-29T01:48:05;101226.59;;;17.84;43.25
46756;BME280;32506;52.826;-1.192;2022-07-29T01:50:33;101227.88;;;17.82;43.36
46756;BME280;32506;52.826;-1.192;2022-07-29T01:53:02;101222.72;;;17.80;43.24
46756;BME280;32506;52.826;-1.192;2022-07-29T01:55:32;101219.47;;;17.78;43.49
46756;BME280;32506;52.826;-1.192;2022-07-29T01:57:59;101220.53;;;17.77;43.35
46756;BME280;32506;52.826;-1.192;2022-07-29T02:00:26;101221.59;;;17.76;43.36
46756;BME280;32506;52.826;-1.192;2022-07-29T02:02:53;101230.19;;;17.73;43.60
46756;BME280;32506;52.826;-1.192;2022-07-29T02:05:21;101226.91;;;17.71;43.84
46756;BME280;32506;52.826;-1.192;2022-07-29T02:07:49;101226.34;;;17.69;43.49
46756;BME280;32506;52.826;-1.192;2022-07-29T02:10:17;101229.06;;;17.69;43.50
46756;BME280;32506;52.826;-1.192;2022-07-29T02:12:43;101224.94;;;17.66;43.42
46756;BME280;32506;52.826;-1.192;2022-07-29T02:15:11;101227.06;;;17.64;43.80
46756;BME280;32506;52.826;-1.192;2022-07-29T02:17:57;101220.84;;;17.64;43.46
46756;BME280;32506;52.826;-1.192;2022-07-29T02:20:25;101227.31;;;17.63;43.90
46756;BME280;32506;52.826;-1.192;2022-07-29T02:22:52;101227.81;;;17.59;44.00
46756;BME280;32506;52.826;-1.192;2022-07-29T02:25:19;101227.22;;;17.57;43.79
46756;BME280;32506;52.826;-1.192;2022-07-29T02:27:47;101220.16;;;17.56;43.94
46756;BME280;32506;52.826;-1.192;2022-07-29T02:30:14;101225.81;;;17.55;44.52
46756;BME280;32506;52.826;-1.192;2022-07-29T02:32:41;101226.06;;;17.53;44.47
46756;BME280;32506;52.826;-1.192;2022-07-29T02:35:09;101229.03;;;17.52;44.40
46756;BME280;32506;52.826;-1.192;2022-07-29T02:37:36;101231.13;;;17.50;44.21
46756;BME280;32506;52.826;-1.192;2022-07-29T02:40:03;101229.28;;;17.50;44.49
46756;BME280;32506;52.826;-1.192;2022-07-29T02:42:31;101232.47;;;17.47;44.52
46756;BME280;32506;52.826;-1.192;2022-07-29T02:44:58;101226.22;;;17.47;44.39
46756;BME280;32506;52.826;-1.192;2022-07-29T02:47:30;101228.13;;;17.46;44.48
46756;BME280;32506;52.826;-1.192;2022-07-29T02:50:08;101224.81;;;17.44;44.32
46756;BME280;32506;52.826;-1.192;2022-07-29T02:52:43;101229.66;;;17.42;44.42
46756;BME280;32506;52.826;-1.192;2022-07-29T02:55:16;101221.81;;;17.40;44.37
46756;BME280;32506;52.826;-1.192;2022-07-29T02:58:02;101224.50;;;17.40;44.97
46756;BME280;32506;52.826;-1.192;2022-07-29T03:00:30;101224.97;;;17.37;44.58
46756;BME280;32506;52.826;-1.192;2022-07-29T03:02:58;101224.16;;;17.37;44.66
46756;BME280;32506;52.826;-1.192;2022-07-29T03:05:25;101228.97;;;17.35;44.73
46756;BME280;32506;52.826;-1.192;2022-07-29T03:07:55;101221.13;;;17.33;44.54
46756;BME280;32506;52.826;-1.192;2022-07-29T03:10:24;101219.47;;;17.32;44.42
46756;BME280;32506;52.826;-1.192;2022-07-29T03:12:51;101218.06;;;17.30;44.28
46756;BME280;32506;52.826;-1.192;2022-07-29T03:15:17;101224.31;;;17.30;44.34
46756;BME280;32506;52.826;-1.192;2022-07-29T03:17:43;101224.56;;;17.28;44.26
46756;BME280;32506;52.826;-1.192;2022-07-29T03:20:10;101222.09;;;17.27;44.34
46756;BME280;32506;52.826;-1.192;2022-07-29T03:22:41;101227.72;;;17.25;44.37
46756;BME280;32506;52.826;-1.192;2022-07-29T03:25:18;101234.22;;;17.24;44.23
46756;BME280;32506;52.826;-1.192;2022-07-29T03:27:45;101226.34;;;17.23;44.14
46756;BME280;32506;52.826;-1.192;2022-07-29T03:30:12;101233.63;;;17.22;44.11
46756;BME280;32506;52.826;-1.192;2022-07-29T03:32:38;101236.56;;;17.21;44.10
46756;BME280;32506;52.826;-1.192;2022-07-29T03:35:04;101229.53;;;17.20;44.05
46756;BME280;32506;52.826;-1.192;2022-07-29T03:37:30;101236.81;;;17.19;44.08
46756;BME280;32506;52.826;-1.192;2022-07-29T03:39:57;101225.41;;;17.17;43.84
46756;BME280;32506;52.826;-1.192;2022-07-29T03:42:24;101231.06;;;17.16;43.96
46756;BME280;32506;52.826;-1.192;2022-07-29T03:44:53;101231.31;;;17.14;43.82
46756;BME280;32506;52.826;-1.192;2022-07-29T03:47:23;101231.31;;;17.14;43.81
46756;BME280;32506;52.826;-1.192;2022-07-29T03:49:52;101233.41;;;17.12;43.88
46756;BME280;32506;52.826;-1.192;2022-07-29T03:52:19;101235.31;;;17.11;43.80
46756;BME280;32506;52.826;-1.192;2022-07-29T03:54:45;101236.59;;;17.09;43.74
46756;BME280;32506;52.826;-1.192;2022-07-29T03:57:12;101241.19;;;17.08;43.75
46756;BME280;32506;52.826;-1.192;2022-07-29T03:59:39;101244.94;;;17.07;43.57
46756;BME280;32506;52.826;-1.192;2022-07-29T04:02:09;101244.16;;;17.07;43.74
46756;BME280;32506;52.826;-1.192;2022-07-29T04:04:36;101244.34;;;17.05;43.58
46756;BME280;32506;52.826;-1.192;2022-07-29T04:07:02;101244.59;;;17.04;43.66
46756;BME280;32506;52.826;-1.192;2022-07-29T04:09:28;101247.56;;;17.02;43.54
46756;BME280;32506;52.826;-1.192;2022-07-29T04:11:54;101245.91;;;17.01;43.64
46756;BME280;32506;52.826;-1.192;2022-07-29T04:14:19;101239.94;;;16.99;43.49
46756;BME280;32506;52.826;-1.192;2022-07-29T04:16:46;101236.41;;;16.99;43.35
46756;BME280;32506;52.826;-1.192;2022-07-29T04:19:11;101237.47;;;16.98;43.48
46756;BME280;32506;52.826;-1.192;2022-07-29T04:21:38;101231.25;;;16.97;43.46
46756;BME280;32506;52.826;-1.192;2022-07-29T04:24:04;101229.63;;;16.96;43.65
46756;BME280;32506;52.826;-1.192;2022-07-29T04:26:30;101232.53;;;16.94;43.71
46756;BME280;32506;52.826;-1.192;2022-07-29T04:28:55;101235.25;;;16.94;43.72
46756;BME280;32506;52.826;-1.192;2022-07-29T04:31:21;101235.47;;;16.93;43.81
46756;BME280;32506;52.826;-1.192;2022-07-29T04:33:46;101236.53;;;16.92;43.59
46756;BME280;32506;52.826;-1.192;2022-07-29T04:36:12;101243.81;;;16.91;43.67
46756;BME280;32506;52.826;-1.192;2022-07-29T04:38:37;101236.78;;;16.90;43.78
46756;BME280;32506;52.826;-1.192;2022-07-29T04:41:03;101234.28;;;16.89;43.99
46756;BME280;32506;52.826;-1.192;2022-07-29T04:43:29;101238.88;;;16.88;43.84
46756;BME280;32506;52.826;-1.192;2022-07-29T04:45:54;101235.59;;;16.86;43.84
46756;BME280;32506;52.826;-1.192;2022-07-29T04:48:20;101238.28;;;16.86;43.84
46756;BME280;32506;52.826;-1.192;2022-07-29T04:50:46;101240.19;;;16.86;44.23
46756;BME280;32506;52.826;-1.192;2022-07-29T04:53:11;101242.28;;;16.84;44.05
46756;BME280;32506;52.826;-1.192;2022-07-29T04:55:37;101243.13;;;16.84;44.23
46756;BME280;32506;52.826;-1.192;2022-07-29T04:58:02;101251.22;;;16.84;44.29
46756;BME280;32506;52.826;-1.192;2022-07-29T05:00:28;101238.78;;;16.83;44.42
46756;BME280;32506;52.826;-1.192;2022-07-29T05:02:53;101251.47;;;16.83;44.26
46756;BME280;32506;52.826;-1.192;2022-07-29T05:05:19;101246.06;;;16.83;43.95
46756;BME280;32506;52.826;-1.192;2022-07-29T05:07:44;101241.47;;;16.83;44.32
46756;BME280;32506;52.826;-1.192;2022-07-29T05:10:10;101242.53;;;16.82;44.43
46756;BME280;32506;52.826;-1.192;2022-07-29T05:12:36;101250.63;;;16.82;44.40
46756;BME280;32506;52.826;-1.192;2022-07-29T05:15:02;101257.91;;;16.82;44.71
46756;BME280;32506;52.826;-1.192;2022-07-29T05:17:28;101258.72;;;16.82;44.35
46756;BME280;32506;52.826;-1.192;2022-07-29T05:19:53;101261.41;;;16.82;44.68
46756;BME280;32506;52.826;-1.192;2022-07-29T05:22:19;101257.91;;;16.82;44.96
46756;BME280;32506;52.826;-1.192;2022-07-29T05:24:45;101263.06;;;16.83;45.29
46756;BME280;32506;52.826;-1.192;2022-07-29T05:27:11;101256.03;;;16.82;45.26
46756;BME280;32506;52.826;-1.192;2022-07-29T05:29:37;101255.78;;;16.84;45.33
46756;BME280;32506;52.826;-1.192;2022-07-29T05:32:03;101252.28;;;16.83;45.54
46756;BME280;32506;52.826;-1.192;2022-07-29T05:34:29;101261.78;;;16.86;45.41
46756;BME280;32506;52.826;-1.192;2022-07-29T05:36:54;101265.28;;;16.86;45.45
46756;BME280;32506;52.826;-1.192;2022-07-29T05:39:20;101266.69;;;16.89;45.48
46756;BME280;32506;52.826;-1.192;2022-07-29T05:41:45;101265.88;;;16.88;45.38
46756;BME280;32506;52.826;-1.192;2022-07-29T05:44:11;101272.97;;;16.89;45.44
46756;BME280;32506;52.826;-1.192;2022-07-29T05:46:38;101261.06;;;16.90;45.56
46756;BME280;32506;52.826;-1.192;2022-07-29T05:49:03;101270.59;;;16.93;45.47
46756;BME280;32506;52.826;-1.192;2022-07-29T05:51:31;101271.97;;;16.96;45.68
46756;BME280;32506;52.826;-1.192;2022-07-29T05:53:57;101266.34;;;16.97;45.52
46756;BME280;32506;52.826;-1.192;2022-07-29T05:56:22;101273.16;;;17.00;45.55
46756;BME280;32506;52.826;-1.192;2022-07-29T05:58:48;101273.75;;;17.02;45.48
46756;BME280;32506;52.826;-1.192;2022-07-29T06:01:14;101280.53;;;17.04;45.38
46756;BME280;32506;52.826;-1.192;2022-07-29T06:03:39;101273.84;;;17.07;45.39
46756;BME280;32506;52.826;-1.192;2022-07-29T06:06:06;101274.41;;;17.09;45.61
46756;BME280;32506;52.826;-1.192;2022-07-29T06:08:32;101276.63;;;17.12;45.89
46756;BME280;32506;52.826;-1.192;2022-07-29T06:10:59;101271.56;;;17.16;46.15
46756;BME280;32506;52.826;-1.192;2022-07-29T06:13:25;101272.50;;;17.21;46.02
46756;BME280;32506;52.826;-1.192;2022-07-29T06:15:53;101278.25;;;17.25;46.09
46756;BME280;32506;52.826;-1.192;2022-07-29T06:18:19;101282.09;;;17.29;45.93
46756;BME280;32506;52.826;-1.192;2022-07-29T06:20:46;101277.84;;;17.33;46.32
46756;BME280;32506;52.826;-1.192;2022-07-29T06:23:11;101278.75;;;17.39;46.23
46756;BME280;32506;52.826;-1.192;2022-07-29T06:25:39;101276.16;;;17.44;46.32
46756;BME280;32506;52.826;-1.192;2022-07-29T06:28:05;101279.78;;;17.50;46.48
46756;BME280;32506;52.826;-1.192;2022-07-29T06:30:30;101280.72;;;17.55;46.15
46756;BME280;32506;52.826;-1.192;2022-07-29T06:32:56;101287.28;;;17.59;46.66
46756;BME280;32506;52.826;-1.192;2022-07-29T06:35:21;101282.78;;;17.65;46.52
46756;BME280;32506;52.826;-1.192;2022-07-29T06:37:47;101283.13;;;17.69;46.48
46756;BME280;32506;52.826;-1.192;2022-07-29T06:40:12;101284.81;;;17.75;46.44
46756;BME280;32506;52.826;-1.192;2022-07-29T06:42:56;101288.69;;;17.79;46.76
46756;BME280;32506;52.826;-1.192;2022-07-29T06:45:22;101290.66;;;17.84;46.68
46756;BME280;32506;52.826;-1.192;2022-07-29T06:47:47;101290.97;;;17.87;46.88
46756;BME280;32506;52.826;-1.192;2022-07-29T06:50:13;101292.16;;;17.91;47.11
46756;BME280;32506;52.826;-1.192;2022-07-29T06:52:39;101294.13;;;17.96;46.83
46756;BME280;32506;52.826;-1.192;2022-07-29T06:55:06;101300.69;;;18.00;46.72
46756;BME280;32506;52.826;-1.192;2022-07-29T06:57:32;101292.94;;;18.04;47.11
46756;BME280;32506;52.826;-1.192;2022-07-29T06:59:57;101296.53;;;18.09;46.89
46756;BME280;32506;52.826;-1.192;2022-07-29T07:02:23;101296.88;;;18.13;46.96
46756;BME280;32506;52.826;-1.192;2022-07-29T07:04:49;101289.38;;;18.20;46.97
46756;BME280;32506;52.826;-1.192;2022-07-29T07:07:14;101291.94;;;18.27;47.21
46756;BME280;32506;52.826;-1.192;2022-07-29T07:09:39;101287.41;;;18.33;47.47
46756;BME280;32506;52.826;-1.192;2022-07-29T07:12:05;101291.59;;;18.40;47.42
46756;BME280;32506;52.826;-1.192;2022-07-29T07:14:31;101293.06;;;18.48;47.66
46756;BME280;32506;52.826;-1.192;2022-07-29T07:16:56;101288.03;;;18.57;47.92
46756;BME280;32506;52.826;-1.192;2022-07-29T07:19:22;101285.16;;;18.64;47.90
46756;BME280;32506;52.826;-1.192;2022-07-29T07:21:47;101289.06;;;18.73;48.06
46756;BME280;32506;52.826;-1.192;2022-07-29T07:24:13;101284.03;;;18.82;48.28
46756;BME280;32506;52.826;-1.192;2022-07-29T07:26:39;101284.44;;;18.90;48.16
46756;BME280;32506;52.826;-1.192;2022-07-29T07:29:05;101293.78;;;19.00;48.29
46756;BME280;32506;52.826;-1.192;2022-07-29T07:31:31;101296.34;;;19.11;48.53
46756;BME280;32506;52.826;-1.192;2022-07-29T07:33:56;101296.72;;;19.20;48.50
46756;BME280;32506;52.826;-1.192;2022-07-29T07:36:23;101295.19;;;19.29;48.57
46756;BME280;32506;52.826;-1.192;2022-07-29T07:38:48;101303.69;;;19.38;48.37
46756;BME280;32506;52.826;-1.192;2022-07-29T07:41:14;101303.81;;;19.49;48.23
46756;BME280;32506;52.826;-1.192;2022-07-29T07:43:40;101306.88;;;19.57;48.34
46756;BME280;32506;52.826;-1.192;2022-07-29T07:46:05;101295.84;;;19.64;48.25
46756;BME280;32506;52.826;-1.192;2022-07-29T07:48:31;101308.66;;;19.74;48.26
46756;BME280;32506;52.826;-1.192;2022-07-29T07:50:56;101311.78;;;19.83;48.36
46756;BME280;32506;52.826;-1.192;2022-07-29T07:53:22;101306.94;;;19.90;48.37
46756;BME280;32506;52.826;-1.192;2022-07-29T07:55:48;101307.31;;;19.99;48.22
46756;BME280;32506;52.826;-1.192;2022-07-29T07:58:13;101306.03;;;20.06;48.09
46756;BME280;32506;52.826;-1.192;2022-07-29T08:00:39;101306.91;;;20.17;48.03
46756;BME280;32506;52.826;-1.192;2022-07-29T08:03:04;101311.00;;;20.25;48.02
46756;BME280;32506;52.826;-1.192;2022-07-29T08:05:30;101305.38;;;20.32;47.88
46756;BME280;32506;52.826;-1.192;2022-07-29T08:07:55;101310.88;;;20.42;47.79
46756;BME280;32506;52.826;-1.192;2022-07-29T08:10:21;101306.03;;;20.49;47.72
46756;BME280;32506;52.826;-1.192;2022-07-29T08:13:09;101305.56;;;20.57;47.43
46756;BME280;32506;52.826;-1.192;2022-07-29T08:15:38;101306.13;;;20.65;47.37
46756;BME280;32506;52.826;-1.192;2022-07-29T08:18:04;101304.03;;;20.72;47.17
46756;BME280;32506;52.826;-1.192;2022-07-29T08:20:29;101307.06;;;20.81;47.16
46756;BME280;32506;52.826;-1.192;2022-07-29T08:22:57;101301.41;;;20.87;47.14
46756;BME280;32506;52.826;-1.192;2022-07-29T08:25:22;101302.78;;;20.95;47.11
46756;BME280;32506;52.826;-1.192;2022-07-29T08:27:48;101307.44;;;21.05;46.69
46756;BME280;32506;52.826;-1.192;2022-07-29T08:30:13;101297.41;;;21.10;46.51
46756;BME280;32506;52.826;-1.192;2022-07-29T08:32:39;101298.78;;;21.18;46.63
46756;BME280;32506;52.826;-1.192;2022-07-29T08:35:04;101290.13;;;21.26;46.59
46756;BME280;32506;52.826;-1.192;2022-07-29T08:37:30;101286.06;;;21.34;46.63
46756;BME280;32506;52.826;-1.192;2022-07-29T08:39:55;101287.72;;;21.45;46.31
46756;BME280;32506;52.826;-1.192;2022-07-29T08:42:21;101282.34;;;21.56;46.44
46756;BME280;32506;52.826;-1.192;2022-07-29T08:44:47;101283.97;;;21.67;46.47
46756;BME280;32506;52.826;-1.192;2022-07-29T08:47:15;101288.59;;;21.82;46.37
46756;BME280;32506;52.826;-1.192;2022-07-29T08:49:41;101290.78;;;21.95;46.45
46756;BME280;32506;52.826;-1.192;2022-07-29T08:52:07;101298.41;;;22.09;46.29
46756;BME280;32506;52.826;-1.192;2022-07-29T08:54:35;101294.88;;;22.24;46.08
46756;BME280;32506;52.826;-1.192;2022-07-29T08:57:01;101291.06;;;22.40;46.25
46756;BME280;32506;52.826;-1.192;2022-07-29T08:59:27;101283.66;;;22.56;45.86
46756;BME280;32506;52.826;-1.192;2022-07-29T09:01:54;101284.16;;;22.74;45.86
46756;BME280;32506;52.826;-1.192;2022-07-29T09:04:20;101291.97;;;22.91;45.75
46756;BME280;32506;52.826;-1.192;2022-07-29T09:06:49;101288.63;;;23.09;45.87
46756;BME280;32506;52.826;-1.192;2022-07-29T09:09:16;101291.31;;;23.25;45.17
46756;BME280;32506;52.826;-1.192;2022-07-29T09:11:42;101285.75;;;23.40;45.11
46756;BME280;32506;52.826;-1.192;2022-07-29T09:14:08;101285.13;;;23.54;44.98
46756;BME280;32506;52.826;-1.192;2022-07-29T09:16:55;101286.94;;;23.69;45.03
46756;BME280;32506;52.826;-1.192;2022-07-29T09:19:29;101286.81;;;23.84;44.58
46756;BME280;32506;52.826;-1.192;2022-07-29T09:21:57;101285.66;;;23.95;44.20
46756;BME280;32506;52.826;-1.192;2022-07-29T09:27:00;101285.38;;;24.26;43.90
46756;BME280;32506;52.826;-1.192;2022-07-29T09:29:25;101293.69;;;24.45;43.73
46756;BME280;32506;52.826;-1.192;2022-07-29T09:31:54;101293.75;;;24.65;43.80
46756;BME280;32506;52.826;-1.192;2022-07-29T09:34:25;101294.03;;;24.87;43.35
46756;BME280;32506;52.826;-1.192;2022-07-29T09:36:52;101290.25;;;25.07;42.98
46756;BME280;32506;52.826;-1.192;2022-07-29T09:39:38;101285.81;;;25.30;42.73
46756;BME280;32506;52.826;-1.192;2022-07-29T09:42:13;101282.00;;;25.51;42.31
46756;BME280;32506;52.826;-1.192;2022-07-29T09:44:45;101290.69;;;25.72;42.22
46756;BME280;32506;52.826;-1.192;2022-07-29T09:47:12;101278.88;;;25.90;42.06
46756;BME280;32506;52.826;-1.192;2022-07-29T09:49:55;101273.91;;;26.11;41.53
46756;BME280;32506;52.826;-1.192;2022-07-29T09:52:23;101276.06;;;26.28;41.33
46756;BME280;32506;52.826;-1.192;2022-07-29T09:54:49;101285.81;;;26.49;41.47
46756;BME280;32506;52.826;-1.192;2022-07-29T09:57:41;101282.38;;;26.71;40.77
46756;BME280;32506;52.826;-1.192;2022-07-29T10:00:18;101282.88;;;26.87;40.44
46756;BME280;32506;52.826;-1.192;2022-07-29T10:02:46;101287.75;;;27.04;40.34
46756;BME280;32506;52.826;-1.192;2022-07-29T10:05:24;101277.25;;;27.20;39.90
46756;BME280;32506;52.826;-1.192;2022-07-29T10:07:55;101274.97;;;27.36;39.66
46756;BME280;32506;52.826;-1.192;2022-07-29T10:10:43;101275.13;;;27.53;39.50
46756;BME280;32506;52.826;-1.192;2022-07-29T10:13:13;101284.28;;;27.71;39.34
46756;BME280;32506;52.826;-1.192;2022-07-29T10:15:42;101278.44;;;27.87;38.75
46756;BME280;32506;52.826;-1.192;2022-07-29T10:18:11;101287.13;;;28.03;38.76
46756;BME280;32506;52.826;-1.192;2022-07-29T10:20:38;101278.78;;;28.17;38.51
46756;BME280;32506;52.826;-1.192;2022-07-29T10:23:04;101286.13;;;28.30;37.89
46756;BME280;32506;52.826;-1.192;2022-07-29T10:25:31;101284.09;;;28.44;37.65
46756;BME280;32506;52.826;-1.192;2022-07-29T10:27:56;101284.28;;;28.57;37.36
46756;BME280;32506;52.826;-1.192;2022-07-29T10:30:24;101279.81;;;28.70;37.83
46756;BME280;32506;52.826;-1.192;2022-07-29T10:41:12;101291.88;;;29.18;36.01
46756;BME280;32506;52.826;-1.192;2022-07-29T10:44:00;101284.66;;;29.31;35.96
46756;BME280;32506;52.826;-1.192;2022-07-29T10:46:27;101290.13;;;29.39;35.68
46756;BME280;32506;52.826;-1.192;2022-07-29T10:49:12;101289.50;;;29.51;35.07
46756;BME280;32506;52.826;-1.192;2022-07-29T10:54:18;101284.13;;;29.63;34.90
46756;BME280;32506;52.826;-1.192;2022-07-29T10:56:44;101284.47;;;29.71;34.67
46756;BME280;32506;52.826;-1.192;2022-07-29T11:01:45;101283.31;;;29.80;34.59
46756;BME280;32506;52.826;-1.192;2022-07-29T11:04:11;101273.25;;;29.85;33.63
46756;BME280;32506;52.826;-1.192;2022-07-29T11:09:30;101280.25;;;29.91;33.29
46756;BME280;32506;52.826;-1.192;2022-07-29T11:11:57;101274.41;;;29.92;33.21
46756;BME280;32506;52.826;-1.192;2022-07-29T11:17:19;101271.78;;;29.96;32.17
46756;BME280;32506;52.826;-1.192;2022-07-29T11:19:45;101277.00;;;29.98;31.35
46756;BME280;32506;52.826;-1.192;2022-07-29T11:22:34;101275.19;;;30.02;31.32
46756;BME280;32506;52.826;-1.192;2022-07-29T11:25:17;101275.66;;;30.04;30.90
46756;BME280;32506;52.826;-1.192;2022-07-29T11:27:44;101274.03;;;30.03;30.99
46756;BME280;32506;52.826;-1.192;2022-07-29T11:30:10;101272.25;;;30.07;31.07
46756;BME280;32506;52.826;-1.192;2022-07-29T11:32:42;101274.34;;;30.10;31.10
46756;BME280;32506;52.826;-1.192;2022-07-29T11:35:14;101275.31;;;30.14;31.30
46756;BME280;32506;52.826;-1.192;2022-07-29T11:37:40;101267.50;;;30.16;30.78
46756;BME280;32506;52.826;-1.192;2022-07-29T11:45:00;101261.31;;;30.28;30.65
46756;BME280;32506;52.826;-1.192;2022-07-29T11:47:27;101263.06;;;30.33;30.24
46756;BME280;32506;52.826;-1.192;2022-07-29T11:49:55;101262.41;;;30.36;30.21
46756;BME280;32506;52.826;-1.192;2022-07-29T11:52:22;101256.22;;;30.39;30.14
46756;BME280;32506;52.826;-1.192;2022-07-29T11:54:49;101250.06;;;30.42;29.75
46756;BME280;32506;52.826;-1.192;2022-07-29T11:57:19;101251.84;;;30.46;29.90
46756;BME280;32506;52.826;-1.192;2022-07-29T11:59:47;101251.16;;;30.50;30.33
46756;BME280;32506;52.826;-1.192;2022-07-29T12:02:13;101245.81;;;30.53;31.02
46756;BME280;32506;52.826;-1.192;2022-07-29T12:04:53;101244.16;;;30.61;30.13
46756;BME280;32506;52.826;-1.192;2022-07-29T12:07:29;101244.75;;;30.67;30.59
46756;BME280;32506;52.826;-1.192;2022-07-29T12:09:54;101245.03;;;30.74;31.32
46756;BME280;32506;52.826;-1.192;2022-07-29T12:12:21;101240.59;;;30.82;31.27
46756;BME280;32506;52.826;-1.192;2022-07-29T12:14:46;101237.44;;;30.92;31.44
46756;BME280;32506;52.826;-1.192;2022-07-29T12:17:32;101227.00;;;31.06;31.26
46756;BME280;32506;52.826;-1.192;2022-07-29T12:20:00;101234.84;;;31.17;31.14
46756;BME280;32506;52.826;-1.192;2022-07-29T12:22:30;101232.94;;;31.29;31.28
46756;BME280;32506;52.826;-1.192;2022-07-29T12:25:05;101237.81;;;31.45;31.54
46756;BME280;32506;52.826;-1.192;2022-07-29T12:27:31;101237.53;;;31.59;31.08
46756;BME280;32506;52.826;-1.192;2022-07-29T12:29:59;101226.34;;;31.76;31.40
46756;BME280;32506;52.826;-1.192;2022-07-29T12:32:55;101219.22;;;32.00;30.94
46756;BME280;32506;52.826;-1.192;2022-07-29T12:35:20;101227.19;;;32.14;31.17
46756;BME280;32506;52.826;-1.192;2022-07-29T12:37:47;101222.25;;;32.32;30.44
46756;BME280;32506;52.826;-1.192;2022-07-29T12:40:16;101229.50;;;32.49;30.59
46756;BME280;32506;52.826;-1.192;2022-07-29T12:43:04;101216.22;;;32.67;29.60
46756;BME280;32506;52.826;-1.192;2022-07-29T12:45:31;101220.16;;;32.78;29.93
46756;BME280;32506;52.826;-1.192;2022-07-29T12:47:56;101213.44;;;32.92;29.94
46756;BME280;32506;52.826;-1.192;2022-07-29T12:50:22;101216.94;;;33.05;29.98
46756;BME280;32506;52.826;-1.192;2022-07-29T12:52:48;101218.88;;;33.17;29.83
46756;BME280;32506;52.826;-1.192;2022-07-29T12:55:13;101215.66;;;33.27;28.89
46756;BME280;32506;52.826;-1.192;2022-07-29T12:57:50;101222.72;;;33.40;29.44
46756;BME280;32506;52.826;-1.192;2022-07-29T13:00:22;101226.94;;;33.50;28.98
46756;BME280;32506;52.826;-1.192;2022-07-29T13:02:55;101229.22;;;33.60;29.25
46756;BME280;32506;52.826;-1.192;2022-07-29T13:05:21;101230.53;;;33.67;28.74
46756;BME280;32506;52.826;-1.192;2022-07-29T13:07:47;101231.91;;;33.73;28.98
46756;BME280;32506;52.826;-1.192;2022-07-29T13:12:40;101226.81;;;33.75;27.67
46756;BME280;32506;52.826;-1.192;2022-07-29T13:15:24;101227.16;;;33.73;26.60
46756;BME280;32506;52.826;-1.192;2022-07-29T13:17:50;101225.88;;;33.71;25.91
46756;BME280;32506;52.826;-1.192;2022-07-29T13:20:15;101225.34;;;33.65;25.83
46756;BME280;32506;52.826;-1.192;2022-07-29T13:22:42;101225.19;;;33.58;25.55